sensor_id;sensor_type;location;lat;lon;timestamp;P1;durP1;ratioP1;P2;durP2;ratioP2
21558;SDS011;10940;48.890;8.240;2023-12-07T00:01:20;2.00;;;1.90;;
21558;SDS011;10940;48.890;8.240;2023-12-07T00:03:45;3.03;;;2.83;;
21558;SDS011;10940;48.890;8.240;2023-12-07T00:06:11;3.20;;;3.00;;
21558;SDS011;10940;48.890;8.240;2023-12-07T00:08:36;2.47;;;2.37;;
21558;SDS011;10940;48.890;8.240;2023-12-07T00:11:02;2.67;;;2.53;;
21558;SDS011;10940;48.890;8.240;2023-12-07T00:13:28;2.43;;;2.30;;
21558;SDS011;10940;48.890;8.240;2023-12-07T00:15:53;1.93;;;1.83;;
21558;SDS011;10940;48.890;8.240;2023-12-07T00:18:19;2.27;;;2.17;;
21558;SDS011;10940;48.890;8.240;2023-12-07T00:20:44;2.80;;;2.70;;
21558;SDS011;10940;48.890;8.240;2023-12-07T00:23:10;3.20;;;3.00;;
21558;SDS011;10940;48.890;8.240;2023-12-07T00:25:36;3.57;;;3.27;;
21558;SDS011;10940;48.890;8.240;2023-12-07T00:28:02;2.10;;;2.00;;
21558;SDS011;10940;48.890;8.240;2023-12-07T00:30:28;2.17;;;2.07;;
21558;SDS011;10940;48.890;8.240;2023-12-07T00:32:54;2.87;;;2.47;;
21558;SDS011;10940;48.890;8.240;2023-12-07T00:35:20;2.10;;;2.00;;
21558;SDS011;10940;48.890;8.240;2023-12-07T00:37:47;1.83;;;1.73;;
21558;SDS011;10940;48.890;8.240;2023-12-07T00:40:13;2.07;;;1.97;;
21558;SDS011;10940;48.890;8.240;2023-12-07T00:42:39;3.93;;;3.63;;
21558;SDS011;10940;48.890;8.240;2023-12-07T00:45:05;1.93;;;1.83;;
21558;SDS011;10940;48.890;8.240;2023-12-07T00:47:30;2.10;;;2.00;;
21558;SDS011;10940;48.890;8.240;2023-12-07T00:49:56;2.97;;;2.77;;
21558;SDS011;10940;48.890;8.240;2023-12-07T00:52:21;3.67;;;2.40;;
21558;SDS011;10940;48.890;8.240;2023-12-07T00:54:47;2.57;;;2.47;;
21558;SDS011;10940;48.890;8.240;2023-12-07T00:57:12;1.57;;;1.47;;
21558;SDS011;10940;48.890;8.240;2023-12-07T00:59:38;2.13;;;2.03;;
21558;SDS011;10940;48.890;8.240;2023-12-07T01:02:04;2.17;;;2.07;;
21558;SDS011;10940;48.890;8.240;2023-12-07T01:04:30;2.27;;;2.17;;
21558;SDS011;10940;48.890;8.240;2023-12-07T01:06:56;2.37;;;2.17;;
21558;SDS011;10940;48.890;8.240;2023-12-07T01:09:22;2.37;;;2.17;;
21558;SDS011;10940;48.890;8.240;2023-12-07T01:11:48;1.83;;;1.77;;
21558;SDS011;10940;48.890;8.240;2023-12-07T01:14:14;2.20;;;2.10;;
21558;SDS011;10940;48.890;8.240;2023-12-07T01:16:40;2.50;;;2.30;;
21558;SDS011;10940;48.890;8.240;2023-12-07T01:19:06;3.70;;;3.40;;
21558;SDS011;10940;48.890;8.240;2023-12-07T01:21:32;2.47;;;2.37;;
21558;SDS011;10940;48.890;8.240;2023-12-07T01:23:58;1.53;;;1.43;;
21558;SDS011;10940;48.890;8.240;2023-12-07T01:26:24;1.40;;;1.40;;
21558;SDS011;10940;48.890;8.240;2023-12-07T01:28:50;1.53;;;1.43;;
21558;SDS011;10940;48.890;8.240;2023-12-07T01:31:15;1.67;;;1.57;;
21558;SDS011;10940;48.890;8.240;2023-12-07T01:33:42;3.70;;;3.40;;
21558;SDS011;10940;48.890;8.240;2023-12-07T01:36:08;1.40;;;1.40;;
21558;SDS011;10940;48.890;8.240;2023-12-07T01:38:34;1.70;;;1.60;;
21558;SDS011;10940;48.890;8.240;2023-12-07T01:40:59;2.03;;;1.93;;
21558;SDS011;10940;48.890;8.240;2023-12-07T01:43:25;2.43;;;2.23;;
21558;SDS011;10940;48.890;8.240;2023-12-07T01:45:51;13.70;;;2.60;;
21558;SDS011;10940;48.890;8.240;2023-12-07T01:48:20;1.10;;;1.10;;
21558;SDS011;10940;48.890;8.240;2023-12-07T01:50:46;3.93;;;2.27;;
21558;SDS011;10940;48.890;8.240;2023-12-07T01:53:12;1.90;;;1.73;;
21558;SDS011;10940;48.890;8.240;2023-12-07T01:55:40;2.63;;;2.53;;
21558;SDS011;10940;48.890;8.240;2023-12-07T01:58:06;2.23;;;2.13;;
21558;SDS011;10940;48.890;8.240;2023-12-07T02:00:32;2.40;;;2.30;;
21558;SDS011;10940;48.890;8.240;2023-12-07T02:02:58;2.27;;;2.17;;
21558;SDS011;10940;48.890;8.240;2023-12-07T02:05:25;1.90;;;1.80;;
21558;SDS011;10940;48.890;8.240;2023-12-07T02:07:51;4.33;;;3.63;;
21558;SDS011;10940;48.890;8.240;2023-12-07T02:10:17;2.70;;;2.57;;
21558;SDS011;10940;48.890;8.240;2023-12-07T02:12:44;1.40;;;1.37;;
21558;SDS011;10940;48.890;8.240;2023-12-07T02:15:10;4.40;;;3.20;;
21558;SDS011;10940;48.890;8.240;2023-12-07T02:22:55;2.57;;;2.37;;
21558;SDS011;10940;48.890;8.240;2023-12-07T02:25:26;2.17;;;1.63;;
21558;SDS011;10940;48.890;8.240;2023-12-07T02:28:00;1.77;;;1.67;;
21558;SDS011;10940;48.890;8.240;2023-12-07T02:30:26;1.77;;;1.70;;
21558;SDS011;10940;48.890;8.240;2023-12-07T02:32:51;1.70;;;1.70;;
21558;SDS011;10940;48.890;8.240;2023-12-07T02:35:17;1.87;;;1.77;;
21558;SDS011;10940;48.890;8.240;2023-12-07T02:37:46;1.63;;;1.53;;
21558;SDS011;10940;48.890;8.240;2023-12-07T02:40:16;1.37;;;1.37;;
21558;SDS011;10940;48.890;8.240;2023-12-07T02:42:43;1.57;;;1.50;;
21558;SDS011;10940;48.890;8.240;2023-12-07T02:45:09;1.77;;;1.67;;
21558;SDS011;10940;48.890;8.240;2023-12-07T02:47:38;4.13;;;1.83;;
21558;SDS011;10940;48.890;8.240;2023-12-07T02:50:05;1.73;;;1.63;;
21558;SDS011;10940;48.890;8.240;2023-12-07T02:52:32;2.00;;;1.87;;
21558;SDS011;10940;48.890;8.240;2023-12-07T02:54:57;2.13;;;2.00;;
21558;SDS011;10940;48.890;8.240;2023-12-07T02:57:23;1.60;;;1.50;;
21558;SDS011;10940;48.890;8.240;2023-12-07T02:59:49;2.20;;;2.10;;
21558;SDS011;10940;48.890;8.240;2023-12-07T03:02:14;1.23;;;1.17;;
21558;SDS011;10940;48.890;8.240;2023-12-07T03:04:40;4.80;;;2.40;;
21558;SDS011;10940;48.890;8.240;2023-12-07T03:07:05;2.50;;;2.27;;
21558;SDS011;10940;48.890;8.240;2023-12-07T03:09:31;2.60;;;2.40;;
21558;SDS011;10940;48.890;8.240;2023-12-07T03:11:57;2.87;;;2.17;;
21558;SDS011;10940;48.890;8.240;2023-12-07T03:14:22;1.43;;;1.43;;
21558;SDS011;10940;48.890;8.240;2023-12-07T03:16:48;1.93;;;1.83;;
21558;SDS011;10940;48.890;8.240;2023-12-07T03:19:14;1.73;;;1.63;;
21558;SDS011;10940;48.890;8.240;2023-12-07T03:21:40;3.00;;;2.47;;
21558;SDS011;10940;48.890;8.240;2023-12-07T03:24:06;1.83;;;1.73;;
21558;SDS011;10940;48.890;8.240;2023-12-07T03:26:33;2.40;;;2.20;;
21558;SDS011;10940;48.890;8.240;2023-12-07T03:28:59;1.80;;;1.70;;
21558;SDS011;10940;48.890;8.240;2023-12-07T03:31:25;1.20;;;1.20;;
21558;SDS011;10940;48.890;8.240;2023-12-07T03:33:50;2.73;;;2.53;;
21558;SDS011;10940;48.890;8.240;2023-12-07T03:36:16;2.53;;;2.43;;
21558;SDS011;10940;48.890;8.240;2023-12-07T03:38:42;2.30;;;2.20;;
21558;SDS011;10940;48.890;8.240;2023-12-07T03:41:08;3.73;;;3.40;;
21558;SDS011;10940;48.890;8.240;2023-12-07T03:43:33;2.77;;;2.27;;
21558;SDS011;10940;48.890;8.240;2023-12-07T03:45:59;2.53;;;2.33;;
21558;SDS011;10940;48.890;8.240;2023-12-07T03:48:24;1.47;;;1.47;;
21558;SDS011;10940;48.890;8.240;2023-12-07T03:50:50;2.53;;;2.43;;
21558;SDS011;10940;48.890;8.240;2023-12-07T03:53:16;2.13;;;2.03;;
21558;SDS011;10940;48.890;8.240;2023-12-07T03:55:41;3.13;;;2.93;;
21558;SDS011;10940;48.890;8.240;2023-12-07T03:58:07;2.80;;;2.70;;
21558;SDS011;10940;48.890;8.240;2023-12-07T04:00:32;2.60;;;2.40;;
21558;SDS011;10940;48.890;8.240;2023-12-07T04:02:58;2.80;;;2.03;;
21558;SDS011;10940;48.890;8.240;2023-12-07T04:05:23;2.23;;;2.13;;
21558;SDS011;10940;48.890;8.240;2023-12-07T04:07:49;6.47;;;2.73;;
21558;SDS011;10940;48.890;8.240;2023-12-07T04:10:15;2.20;;;2.07;;
21558;SDS011;10940;48.890;8.240;2023-12-07T04:12:41;2.17;;;2.07;;
21558;SDS011;10940;48.890;8.240;2023-12-07T04:15:07;1.87;;;1.77;;
21558;SDS011;10940;48.890;8.240;2023-12-07T04:17:32;1.70;;;1.60;;
21558;SDS011;10940;48.890;8.240;2023-12-07T04:19:58;2.13;;;2.03;;
21558;SDS011;10940;48.890;8.240;2023-12-07T04:22:24;1.80;;;1.70;;
21558;SDS011;10940;48.890;8.240;2023-12-07T04:24:49;2.03;;;1.80;;
21558;SDS011;10940;48.890;8.240;2023-12-07T04:27:15;7.93;;;4.43;;
21558;SDS011;10940;48.890;8.240;2023-12-07T04:29:40;2.37;;;2.17;;
21558;SDS011;10940;48.890;8.240;2023-12-07T04:32:06;2.27;;;2.17;;
21558;SDS011;10940;48.890;8.240;2023-12-07T04:34:32;1.60;;;1.57;;
21558;SDS011;10940;48.890;8.240;2023-12-07T04:36:58;2.53;;;2.33;;
21558;SDS011;10940;48.890;8.240;2023-12-07T04:39:24;2.23;;;2.13;;
21558;SDS011;10940;48.890;8.240;2023-12-07T04:41:49;1.70;;;1.60;;
21558;SDS011;10940;48.890;8.240;2023-12-07T04:44:16;2.60;;;2.40;;
21558;SDS011;10940;48.890;8.240;2023-12-07T04:46:41;2.07;;;1.97;;
21558;SDS011;10940;48.890;8.240;2023-12-07T04:49:08;1.47;;;1.47;;
21558;SDS011;10940;48.890;8.240;2023-12-07T04:51:34;1.93;;;1.83;;
21558;SDS011;10940;48.890;8.240;2023-12-07T04:53:59;1.63;;;1.53;;
21558;SDS011;10940;48.890;8.240;2023-12-07T04:56:25;2.20;;;1.93;;
21558;SDS011;10940;48.890;8.240;2023-12-07T04:58:51;2.47;;;2.27;;
21558;SDS011;10940;48.890;8.240;2023-12-07T05:01:17;3.23;;;3.03;;
21558;SDS011;10940;48.890;8.240;2023-12-07T05:03:44;2.73;;;2.60;;
21558;SDS011;10940;48.890;8.240;2023-12-07T05:06:10;2.00;;;1.90;;
21558;SDS011;10940;48.890;8.240;2023-12-07T05:08:35;2.20;;;2.10;;
21558;SDS011;10940;48.890;8.240;2023-12-07T05:11:01;2.57;;;2.40;;
21558;SDS011;10940;48.890;8.240;2023-12-07T05:13:26;1.97;;;1.87;;
21558;SDS011;10940;48.890;8.240;2023-12-07T05:15:52;2.47;;;2.33;;
21558;SDS011;10940;48.890;8.240;2023-12-07T05:18:17;5.20;;;3.17;;
21558;SDS011;10940;48.890;8.240;2023-12-07T05:20:43;3.17;;;2.87;;
21558;SDS011;10940;48.890;8.240;2023-12-07T05:23:09;4.53;;;3.60;;
21558;SDS011;10940;48.890;8.240;2023-12-07T05:25:34;3.63;;;2.87;;
21558;SDS011;10940;48.890;8.240;2023-12-07T05:28:00;20.37;;;3.83;;
21558;SDS011;10940;48.890;8.240;2023-12-07T05:30:26;2.17;;;2.07;;
21558;SDS011;10940;48.890;8.240;2023-12-07T05:32:53;2.13;;;1.97;;
21558;SDS011;10940;48.890;8.240;2023-12-07T05:35:18;32.63;;;4.70;;
21558;SDS011;10940;48.890;8.240;2023-12-07T05:37:44;2.40;;;2.30;;
21558;SDS011;10940;48.890;8.240;2023-12-07T05:40:10;1.97;;;1.87;;
21558;SDS011;10940;48.890;8.240;2023-12-07T05:42:37;3.43;;;3.20;;
21558;SDS011;10940;48.890;8.240;2023-12-07T05:45:03;2.23;;;2.10;;
21558;SDS011;10940;48.890;8.240;2023-12-07T05:47:29;2.00;;;1.90;;
21558;SDS011;10940;48.890;8.240;2023-12-07T05:49:55;1.90;;;1.80;;
21558;SDS011;10940;48.890;8.240;2023-12-07T05:52:23;2.70;;;2.50;;
21558;SDS011;10940;48.890;8.240;2023-12-07T05:54:48;2.47;;;2.33;;
21558;SDS011;10940;48.890;8.240;2023-12-07T05:57:14;2.17;;;2.07;;
21558;SDS011;10940;48.890;8.240;2023-12-07T05:59:39;2.93;;;2.73;;
21558;SDS011;10940;48.890;8.240;2023-12-07T06:02:06;2.47;;;2.27;;
21558;SDS011;10940;48.890;8.240;2023-12-07T06:04:32;1.43;;;1.33;;
21558;SDS011;10940;48.890;8.240;2023-12-07T06:06:57;2.37;;;2.27;;
21558;SDS011;10940;48.890;8.240;2023-12-07T06:09:23;2.07;;;1.97;;
21558;SDS011;10940;48.890;8.240;2023-12-07T06:11:48;1.40;;;1.37;;
21558;SDS011;10940;48.890;8.240;2023-12-07T06:14:14;1.73;;;1.63;;
21558;SDS011;10940;48.890;8.240;2023-12-07T06:16:40;1.10;;;1.10;;
21558;SDS011;10940;48.890;8.240;2023-12-07T06:19:05;1.90;;;1.80;;
21558;SDS011;10940;48.890;8.240;2023-12-07T06:21:31;1.63;;;1.53;;
21558;SDS011;10940;48.890;8.240;2023-12-07T06:23:57;1.97;;;1.87;;
21558;SDS011;10940;48.890;8.240;2023-12-07T06:26:24;2.07;;;1.97;;
21558;SDS011;10940;48.890;8.240;2023-12-07T06:28:50;2.87;;;2.67;;
21558;SDS011;10940;48.890;8.240;2023-12-07T06:31:16;3.77;;;3.27;;
21558;SDS011;10940;48.890;8.240;2023-12-07T06:33:45;3.30;;;3.00;;
21558;SDS011;10940;48.890;8.240;2023-12-07T06:36:10;1.57;;;1.53;;
21558;SDS011;10940;48.890;8.240;2023-12-07T06:38:36;2.30;;;2.20;;
21558;SDS011;10940;48.890;8.240;2023-12-07T06:41:03;2.60;;;2.40;;
21558;SDS011;10940;48.890;8.240;2023-12-07T06:43:29;3.87;;;3.27;;
21558;SDS011;10940;48.890;8.240;2023-12-07T06:45:54;1.83;;;1.73;;
21558;SDS011;10940;48.890;8.240;2023-12-07T06:48:21;2.53;;;2.42;;
21558;SDS011;10940;48.890;8.240;2023-12-07T06:50:46;2.33;;;2.23;;
21558;SDS011;10940;48.890;8.240;2023-12-07T06:53:13;3.00;;;2.77;;
21558;SDS011;10940;48.890;8.240;2023-12-07T06:55:40;18.17;;;5.20;;
21558;SDS011;10940;48.890;8.240;2023-12-07T06:58:08;3.83;;;2.73;;
21558;SDS011;10940;48.890;8.240;2023-12-07T07:00:34;3.53;;;3.22;;
21558;SDS011;10940;48.890;8.240;2023-12-07T07:03:01;2.08;;;1.98;;
21558;SDS011;10940;48.890;8.240;2023-12-07T07:05:26;2.97;;;2.63;;
21558;SDS011;10940;48.890;8.240;2023-12-07T07:07:52;9.17;;;2.93;;
21558;SDS011;10940;48.890;8.240;2023-12-07T07:10:18;2.63;;;2.43;;
21558;SDS011;10940;48.890;8.240;2023-12-07T07:12:43;2.53;;;2.33;;
21558;SDS011;10940;48.890;8.240;2023-12-07T07:15:09;1.90;;;1.80;;
21558;SDS011;10940;48.890;8.240;2023-12-07T07:17:35;1.73;;;1.63;;
21558;SDS011;10940;48.890;8.240;2023-12-07T07:20:00;3.10;;;2.87;;
21558;SDS011;10940;48.890;8.240;2023-12-07T07:22:26;3.80;;;2.53;;
21558;SDS011;10940;48.890;8.240;2023-12-07T07:24:51;2.23;;;2.13;;
21558;SDS011;10940;48.890;8.240;2023-12-07T07:27:17;1.90;;;1.80;;
21558;SDS011;10940;48.890;8.240;2023-12-07T07:29:43;1.77;;;1.67;;
21558;SDS011;10940;48.890;8.240;2023-12-07T07:32:09;2.53;;;2.20;;
21558;SDS011;10940;48.890;8.240;2023-12-07T07:34:35;1.87;;;1.77;;
21558;SDS011;10940;48.890;8.240;2023-12-07T07:37:01;1.57;;;1.50;;
21558;SDS011;10940;48.890;8.240;2023-12-07T07:39:27;1.87;;;1.77;;
21558;SDS011;10940;48.890;8.240;2023-12-07T07:41:53;1.70;;;1.63;;
21558;SDS011;10940;48.890;8.240;2023-12-07T07:44:19;3.27;;;3.00;;
21558;SDS011;10940;48.890;8.240;2023-12-07T07:46:44;3.67;;;3.37;;
21558;SDS011;10940;48.890;8.240;2023-12-07T07:49:12;3.47;;;3.17;;
21558;SDS011;10940;48.890;8.240;2023-12-07T07:51:37;5.17;;;4.10;;
21558;SDS011;10940;48.890;8.240;2023-12-07T07:54:03;3.50;;;3.13;;
21558;SDS011;10940;48.890;8.240;2023-12-07T07:56:29;2.23;;;2.07;;
21558;SDS011;10940;48.890;8.240;2023-12-07T07:58:55;1.93;;;1.83;;
21558;SDS011;10940;48.890;8.240;2023-12-07T08:01:20;2.60;;;2.40;;
21558;SDS011;10940;48.890;8.240;2023-12-07T08:03:49;3.03;;;2.83;;
21558;SDS011;10940;48.890;8.240;2023-12-07T08:06:15;3.40;;;3.20;;
21558;SDS011;10940;48.890;8.240;2023-12-07T08:08:40;2.37;;;2.27;;
21558;SDS011;10940;48.890;8.240;2023-12-07T08:11:06;2.93;;;2.77;;
21558;SDS011;10940;48.890;8.240;2023-12-07T08:13:31;2.73;;;2.53;;
21558;SDS011;10940;48.890;8.240;2023-12-07T08:15:57;2.43;;;2.30;;
21558;SDS011;10940;48.890;8.240;2023-12-07T08:18:22;2.70;;;2.50;;
21558;SDS011;10940;48.890;8.240;2023-12-07T08:20:48;2.13;;;2.03;;
21558;SDS011;10940;48.890;8.240;2023-12-07T08:23:13;3.77;;;3.17;;
21558;SDS011;10940;48.890;8.240;2023-12-07T08:25:39;1.83;;;1.77;;
21558;SDS011;10940;48.890;8.240;2023-12-07T08:28:08;2.27;;;2.17;;
21558;SDS011;10940;48.890;8.240;2023-12-07T08:30:34;3.40;;;2.07;;
21558;SDS011;10940;48.890;8.240;2023-12-07T08:33:00;1.90;;;1.70;;
21558;SDS011;10940;48.890;8.240;2023-12-07T08:35:26;1.80;;;1.70;;
21558;SDS011;10940;48.890;8.240;2023-12-07T08:37:52;2.17;;;2.07;;
21558;SDS011;10940;48.890;8.240;2023-12-07T08:40:18;2.07;;;1.97;;
21558;SDS011;10940;48.890;8.240;2023-12-07T08:42:44;2.27;;;2.17;;
21558;SDS011;10940;48.890;8.240;2023-12-07T08:45:11;2.47;;;1.90;;
21558;SDS011;10940;48.890;8.240;2023-12-07T08:47:38;2.37;;;2.27;;
21558;SDS011;10940;48.890;8.240;2023-12-07T08:50:04;2.67;;;2.47;;
21558;SDS011;10940;48.890;8.240;2023-12-07T08:52:32;2.77;;;2.67;;
21558;SDS011;10940;48.890;8.240;2023-12-07T08:54:58;2.80;;;2.60;;
21558;SDS011;10940;48.890;8.240;2023-12-07T08:57:24;1.90;;;1.80;;
21558;SDS011;10940;48.890;8.240;2023-12-07T08:59:51;2.00;;;1.90;;
21558;SDS011;10940;48.890;8.240;2023-12-07T09:02:16;2.63;;;2.43;;
21558;SDS011;10940;48.890;8.240;2023-12-07T09:04:42;2.13;;;2.03;;
21558;SDS011;10940;48.890;8.240;2023-12-07T09:07:08;2.83;;;2.63;;
21558;SDS011;10940;48.890;8.240;2023-12-07T09:09:34;2.53;;;2.40;;
21558;SDS011;10940;48.890;8.240;2023-12-07T09:12:00;1.77;;;1.67;;
21558;SDS011;10940;48.890;8.240;2023-12-07T09:14:26;2.40;;;2.30;;
21558;SDS011;10940;48.890;8.240;2023-12-07T09:16:51;3.10;;;2.90;;
21558;SDS011;10940;48.890;8.240;2023-12-07T09:19:17;2.73;;;2.57;;
21558;SDS011;10940;48.890;8.240;2023-12-07T09:21:43;3.13;;;2.93;;
21558;SDS011;10940;48.890;8.240;2023-12-07T09:24:09;3.03;;;2.83;;
21558;SDS011;10940;48.890;8.240;2023-12-07T09:26:34;2.30;;;2.20;;
21558;SDS011;10940;48.890;8.240;2023-12-07T09:29:01;2.10;;;2.00;;
21558;SDS011;10940;48.890;8.240;2023-12-07T09:31:26;2.80;;;2.57;;
21558;SDS011;10940;48.890;8.240;2023-12-07T09:33:52;3.63;;;2.90;;
21558;SDS011;10940;48.890;8.240;2023-12-07T09:36:19;2.47;;;2.37;;
21558;SDS011;10940;48.890;8.240;2023-12-07T09:38:46;2.10;;;1.93;;
21558;SDS011;10940;48.890;8.240;2023-12-07T09:41:12;2.67;;;2.47;;
21558;SDS011;10940;48.890;8.240;2023-12-07T09:43:38;2.53;;;2.33;;
21558;SDS011;10940;48.890;8.240;2023-12-07T09:46:04;2.87;;;2.67;;
21558;SDS011;10940;48.890;8.240;2023-12-07T09:48:31;2.63;;;2.50;;
21558;SDS011;10940;48.890;8.240;2023-12-07T09:50:57;3.10;;;2.90;;
21558;SDS011;10940;48.890;8.240;2023-12-07T09:53:26;2.33;;;2.23;;
21558;SDS011;10940;48.890;8.240;2023-12-07T09:55:54;4.57;;;4.17;;
21558;SDS011;10940;48.890;8.240;2023-12-07T09:58:19;3.40;;;3.20;;
21558;SDS011;10940;48.890;8.240;2023-12-07T10:00:46;3.37;;;3.17;;
21558;SDS011;10940;48.890;8.240;2023-12-07T10:03:22;2.60;;;2.50;;
21558;SDS011;10940;48.890;8.240;2023-12-07T10:08:29;4.00;;;3.60;;
21558;SDS011;10940;48.890;8.240;2023-12-07T10:13:33;3.13;;;2.93;;
21558;SDS011;10940;48.890;8.240;2023-12-07T10:16:13;4.50;;;4.20;;
21558;SDS011;10940;48.890;8.240;2023-12-07T10:18:40;4.33;;;3.93;;
21558;SDS011;10940;48.890;8.240;2023-12-07T10:21:09;3.93;;;3.70;;
21558;SDS011;10940;48.890;8.240;2023-12-07T10:23:38;3.17;;;3.03;;
21558;SDS011;10940;48.890;8.240;2023-12-07T10:26:05;3.97;;;3.77;;
21558;SDS011;10940;48.890;8.240;2023-12-07T10:28:33;4.30;;;4.00;;
21558;SDS011;10940;48.890;8.240;2023-12-07T10:31:00;2.77;;;2.63;;
21558;SDS011;10940;48.890;8.240;2023-12-07T10:33:26;3.47;;;3.27;;
21558;SDS011;10940;48.890;8.240;2023-12-07T10:35:52;4.10;;;3.80;;
21558;SDS011;10940;48.890;8.240;2023-12-07T10:38:17;3.50;;;3.30;;
21558;SDS011;10940;48.890;8.240;2023-12-07T10:40:45;4.87;;;4.43;;
21558;SDS011;10940;48.890;8.240;2023-12-07T10:43:12;2.90;;;2.70;;
21558;SDS011;10940;48.890;8.240;2023-12-07T10:45:38;6.27;;;3.73;;
21558;SDS011;10940;48.890;8.240;2023-12-07T10:48:07;5.03;;;4.53;;
21558;SDS011;10940;48.890;8.240;2023-12-07T10:50:35;4.00;;;3.70;;
21558;SDS011;10940;48.890;8.240;2023-12-07T10:53:09;3.40;;;3.20;;
21558;SDS011;10940;48.890;8.240;2023-12-07T10:55:41;4.10;;;3.70;;
21558;SDS011;10940;48.890;8.240;2023-12-07T10:58:12;4.03;;;3.73;;
21558;SDS011;10940;48.890;8.240;2023-12-07T11:00:41;7.77;;;5.93;;
21558;SDS011;10940;48.890;8.240;2023-12-07T11:03:11;3.83;;;3.60;;
21558;SDS011;10940;48.890;8.240;2023-12-07T11:05:44;4.00;;;3.70;;
21558;SDS011;10940;48.890;8.240;2023-12-07T11:08:11;3.40;;;3.20;;
21558;SDS011;10940;48.890;8.240;2023-12-07T11:13:47;3.73;;;3.53;;
21558;SDS011;10940;48.890;8.240;2023-12-07T11:16:17;5.53;;;5.13;;
21558;SDS011;10940;48.890;8.240;2023-12-07T11:18:58;4.73;;;4.33;;
21558;SDS011;10940;48.890;8.240;2023-12-07T11:21:24;4.30;;;4.00;;
21558;SDS011;10940;48.890;8.240;2023-12-07T11:23:53;3.47;;;3.27;;
21558;SDS011;10940;48.890;8.240;2023-12-07T11:26:20;3.83;;;3.53;;
21558;SDS011;10940;48.890;8.240;2023-12-07T11:28:49;5.90;;;5.47;;
21558;SDS011;10940;48.890;8.240;2023-12-07T11:31:15;4.90;;;4.50;;
21558;SDS011;10940;48.890;8.240;2023-12-07T11:33:41;4.37;;;3.93;;
21558;SDS011;10940;48.890;8.240;2023-12-07T11:36:08;9.37;;;5.93;;
21558;SDS011;10940;48.890;8.240;2023-12-07T11:38:38;4.43;;;4.13;;
21558;SDS011;10940;48.890;8.240;2023-12-07T11:41:23;3.67;;;3.47;;
21558;SDS011;10940;48.890;8.240;2023-12-07T11:43:49;5.53;;;5.13;;
21558;SDS011;10940;48.890;8.240;2023-12-07T11:46:18;5.10;;;4.77;;
21558;SDS011;10940;48.890;8.240;2023-12-07T11:48:47;4.20;;;3.80;;
21558;SDS011;10940;48.890;8.240;2023-12-07T11:51:15;5.20;;;4.77;;
21558;SDS011;10940;48.890;8.240;2023-12-07T11:53:41;3.57;;;3.33;;
21558;SDS011;10940;48.890;8.240;2023-12-07T11:56:08;5.77;;;5.37;;
21558;SDS011;10940;48.890;8.240;2023-12-07T11:58:35;3.87;;;3.57;;
21558;SDS011;10940;48.890;8.240;2023-12-07T12:01:02;5.03;;;4.63;;
21558;SDS011;10940;48.890;8.240;2023-12-07T12:03:29;4.97;;;4.57;;
21558;SDS011;10940;48.890;8.240;2023-12-07T12:05:59;4.63;;;4.33;;
21558;SDS011;10940;48.890;8.240;2023-12-07T12:08:25;5.13;;;4.77;;
21558;SDS011;10940;48.890;8.240;2023-12-07T12:10:51;5.07;;;4.67;;
21558;SDS011;10940;48.890;8.240;2023-12-07T12:13:18;6.90;;;5.83;;
21558;SDS011;10940;48.890;8.240;2023-12-07T12:15:44;5.67;;;5.17;;
21558;SDS011;10940;48.890;8.240;2023-12-07T12:18:13;6.60;;;6.00;;
21558;SDS011;10940;48.890;8.240;2023-12-07T12:20:39;4.87;;;4.50;;
21558;SDS011;10940;48.890;8.240;2023-12-07T12:23:05;9.37;;;5.67;;
21558;SDS011;10940;48.890;8.240;2023-12-07T12:25:31;4.17;;;3.87;;
21558;SDS011;10940;48.890;8.240;2023-12-07T12:28:06;6.93;;;6.20;;
21558;SDS011;10940;48.890;8.240;2023-12-07T12:30:33;7.40;;;5.20;;
21558;SDS011;10940;48.890;8.240;2023-12-07T12:32:59;5.50;;;5.00;;
21558;SDS011;10940;48.890;8.240;2023-12-07T12:35:25;5.00;;;4.60;;
21558;SDS011;10940;48.890;8.240;2023-12-07T12:37:51;4.73;;;4.33;;
21558;SDS011;10940;48.890;8.240;2023-12-07T12:40:18;3.37;;;3.17;;
21558;SDS011;10940;48.890;8.240;2023-12-07T12:42:45;6.40;;;5.80;;
21558;SDS011;10940;48.890;8.240;2023-12-07T12:45:12;5.97;;;5.47;;
21558;SDS011;10940;48.890;8.240;2023-12-07T12:47:39;3.97;;;3.77;;
21558;SDS011;10940;48.890;8.240;2023-12-07T12:50:08;6.13;;;5.63;;
21558;SDS011;10940;48.890;8.240;2023-12-07T12:52:35;8.40;;;5.90;;
21558;SDS011;10940;48.890;8.240;2023-12-07T12:55:02;7.93;;;4.97;;
21558;SDS011;10940;48.890;8.240;2023-12-07T12:57:28;3.33;;;3.07;;
21558;SDS011;10940;48.890;8.240;2023-12-07T12:59:53;10.00;;;5.87;;
21558;SDS011;10940;48.890;8.240;2023-12-07T13:02:20;5.57;;;4.90;;
21558;SDS011;10940;48.890;8.240;2023-12-07T13:04:46;6.00;;;5.50;;
21558;SDS011;10940;48.890;8.240;2023-12-07T13:07:12;3.43;;;3.17;;
21558;SDS011;10940;48.890;8.240;2023-12-07T13:09:40;5.43;;;5.03;;
21558;SDS011;10940;48.890;8.240;2023-12-07T13:12:08;5.27;;;4.77;;
21558;SDS011;10940;48.890;8.240;2023-12-07T13:14:34;5.27;;;4.77;;
21558;SDS011;10940;48.890;8.240;2023-12-07T13:17:00;4.93;;;4.43;;
21558;SDS011;10940;48.890;8.240;2023-12-07T13:19:27;11.33;;;5.57;;
21558;SDS011;10940;48.890;8.240;2023-12-07T13:21:52;4.13;;;3.90;;
21558;SDS011;10940;48.890;8.240;2023-12-07T13:24:18;5.77;;;4.70;;
21558;SDS011;10940;48.890;8.240;2023-12-07T13:26:44;4.00;;;3.70;;
21558;SDS011;10940;48.890;8.240;2023-12-07T13:29:09;4.37;;;4.07;;
21558;SDS011;10940;48.890;8.240;2023-12-07T13:31:35;4.70;;;4.40;;
21558;SDS011;10940;48.890;8.240;2023-12-07T13:34:01;4.77;;;4.27;;
21558;SDS011;10940;48.890;8.240;2023-12-07T13:36:27;5.57;;;5.17;;
21558;SDS011;10940;48.890;8.240;2023-12-07T13:38:54;4.57;;;4.20;;
21558;SDS011;10940;48.890;8.240;2023-12-07T13:41:20;7.10;;;6.40;;
21558;SDS011;10940;48.890;8.240;2023-12-07T13:43:47;5.57;;;5.17;;
21558;SDS011;10940;48.890;8.240;2023-12-07T13:46:13;7.03;;;6.37;;
21558;SDS011;10940;48.890;8.240;2023-12-07T13:48:40;3.53;;;3.33;;
21558;SDS011;10940;48.890;8.240;2023-12-07T13:51:06;5.87;;;5.37;;
21558;SDS011;10940;48.890;8.240;2023-12-07T13:53:32;5.67;;;5.23;;
21558;SDS011;10940;48.890;8.240;2023-12-07T13:55:59;5.43;;;5.03;;
21558;SDS011;10940;48.890;8.240;2023-12-07T13:58:24;3.90;;;3.60;;
21558;SDS011;10940;48.890;8.240;2023-12-07T14:00:50;7.63;;;4.73;;
21558;SDS011;10940;48.890;8.240;2023-12-07T14:03:16;5.07;;;4.67;;
21558;SDS011;10940;48.890;8.240;2023-12-07T14:05:41;5.03;;;4.63;;
21558;SDS011;10940;48.890;8.240;2023-12-07T14:08:07;4.93;;;4.53;;
21558;SDS011;10940;48.890;8.240;2023-12-07T14:10:33;5.07;;;4.67;;
21558;SDS011;10940;48.890;8.240;2023-12-07T14:12:59;4.40;;;4.00;;
21558;SDS011;10940;48.890;8.240;2023-12-07T14:15:25;20.60;;;4.90;;
21558;SDS011;10940;48.890;8.240;2023-12-07T14:17:51;10.63;;;5.37;;
21558;SDS011;10940;48.890;8.240;2023-12-07T14:20:17;5.07;;;4.67;;
21558;SDS011;10940;48.890;8.240;2023-12-07T14:22:43;5.50;;;5.10;;
21558;SDS011;10940;48.890;8.240;2023-12-07T14:25:09;4.07;;;3.77;;
21558;SDS011;10940;48.890;8.240;2023-12-07T14:27:35;4.20;;;3.90;;
21558;SDS011;10940;48.890;8.240;2023-12-07T14:30:01;4.67;;;4.27;;
21558;SDS011;10940;48.890;8.240;2023-12-07T14:32:27;4.97;;;4.57;;
21558;SDS011;10940;48.890;8.240;2023-12-07T14:34:54;4.17;;;3.87;;
21558;SDS011;10940;48.890;8.240;2023-12-07T14:37:20;6.20;;;5.70;;
21558;SDS011;10940;48.890;8.240;2023-12-07T14:39:46;4.63;;;4.23;;
21558;SDS011;10940;48.890;8.240;2023-12-07T14:42:11;4.50;;;4.20;;
21558;SDS011;10940;48.890;8.240;2023-12-07T14:44:37;5.40;;;4.93;;
21558;SDS011;10940;48.890;8.240;2023-12-07T14:47:03;6.17;;;5.67;;
21558;SDS011;10940;48.890;8.240;2023-12-07T14:49:29;7.00;;;6.40;;
21558;SDS011;10940;48.890;8.240;2023-12-07T14:51:54;5.90;;;5.40;;
21558;SDS011;10940;48.890;8.240;2023-12-07T14:54:24;5.30;;;4.90;;
21558;SDS011;10940;48.890;8.240;2023-12-07T14:56:50;8.33;;;7.50;;